createdAt,value
2022-12-14T00:02:49.404Z,-6.74
2022-12-14T00:06:01.416Z,-6.89
2022-12-14T00:09:13.481Z,-6.97
2022-12-14T00:12:25.316Z,-7.01
2022-12-14T00:15:37.849Z,-7.19
2022-12-14T00:18:54.982Z,-7.42
2022-12-14T00:22:06.864Z,-7.53
2022-12-14T00:25:18.924Z,-7.48
2022-12-14T00:28:30.873Z,-7.48
2022-12-14T00:31:42.684Z,-7.47
2022-12-14T00:34:54.666Z,-7.58
2022-12-14T00:38:06.579Z,-7.56
2022-12-14T00:41:19.011Z,-7.52
2022-12-14T00:44:31.394Z,-7.51
2022-12-14T00:47:43.182Z,-7.57
2022-12-14T00:50:56.566Z,-7.75
2022-12-14T00:54:08.393Z,-7.93
2022-12-14T00:57:20.543Z,-8.07
2022-12-14T01:00:32.314Z,-8.06
2022-12-14T01:03:44.189Z,-8.03
2022-12-14T01:06:57.663Z,-8.06
2022-12-14T01:10:10.627Z,-8.02
2022-12-14T01:13:24.240Z,-8.07
2022-12-14T01:16:36.380Z,-8.17
2022-12-14T01:19:49.255Z,-8.21
2022-12-14T01:23:03.241Z,-8.27
2022-12-14T01:26:16.204Z,-8.28
2022-12-14T01:29:28.360Z,-8.27
2022-12-14T01:32:41.811Z,-8.26
2022-12-14T01:35:53.583Z,-8.22
2022-12-14T01:39:09.559Z,-8.26
2022-12-14T01:42:22.726Z,-8.20
2022-12-14T01:45:35.085Z,-8.27
2022-12-14T01:48:46.927Z,-8.28
2022-12-14T01:52:04.264Z,-8.30
2022-12-14T01:55:20.761Z,-8.24
2022-12-14T01:58:34.469Z,-8.30
2022-12-14T02:01:49.083Z,-8.34
2022-12-14T02:05:05.573Z,-8.41
2022-12-14T02:08:18.443Z,-8.45
2022-12-14T02:11:39.222Z,-8.47
2022-12-14T02:14:51.890Z,-8.46
2022-12-14T02:18:05.328Z,-8.47
2022-12-14T02:21:36.960Z,-8.51
2022-12-14T02:25:24.641Z,-8.57
2022-12-14T02:29:02.992Z,-8.72
2022-12-14T02:32:42.398Z,-8.65
2022-12-14T02:35:59.661Z,-8.58
2022-12-14T02:39:18.593Z,-8.61
2022-12-14T02:42:38.552Z,-8.64
2022-12-14T02:45:54.879Z,-8.65
2022-12-14T02:49:09.259Z,-8.60
2022-12-14T02:52:26.872Z,-8.67
2022-12-14T02:55:43.114Z,-8.86
2022-12-14T02:58:56.966Z,-8.98
2022-12-14T03:02:10.568Z,-8.98
2022-12-14T03:05:23.500Z,-9.01
2022-12-14T03:08:38.968Z,-9.06
2022-12-14T03:11:56.314Z,-8.99
2022-12-14T03:15:11.959Z,-8.99
2022-12-14T03:18:28.391Z,-9.05
2022-12-14T03:21:44.202Z,-9.09
2022-12-14T03:25:01.395Z,-9.17
2022-12-14T03:28:17.708Z,-9.11
2022-12-14T03:31:35.978Z,-9.08
2022-12-14T03:34:53.235Z,-9.19
2022-12-14T03:38:11.283Z,-9.16
2022-12-14T03:41:30.815Z,-9.29
2022-12-14T03:44:49.327Z,-9.21
2022-12-14T03:48:10.984Z,-9.25
2022-12-14T03:51:28.411Z,-9.32
2022-12-14T03:54:49.523Z,-9.31
2022-12-14T03:58:15.593Z,-9.23
2022-12-14T04:01:34.840Z,-9.40
2022-12-14T04:04:52.137Z,-9.36
2022-12-14T04:08:10.981Z,-9.43
2022-12-14T04:11:39.203Z,-9.45
2022-12-14T04:15:10.670Z,-9.35
2022-12-14T04:18:38.198Z,-9.37
2022-12-14T04:21:55.211Z,-9.25
2022-12-14T04:25:26.508Z,-9.15
2022-12-14T04:28:58.567Z,-9.21
2022-12-14T04:32:15.555Z,-9.31
2022-12-14T04:35:33.540Z,-9.55
2022-12-14T04:38:48.591Z,-9.43
2022-12-14T04:42:04.704Z,-9.45
2022-12-14T04:45:22.527Z,-9.48
2022-12-14T04:48:41.495Z,-9.54
2022-12-14T04:52:04.991Z,-9.44
2022-12-14T04:55:19.510Z,-9.30
2022-12-14T04:58:34.884Z,-9.30
2022-12-14T05:01:55.981Z,-9.27
2022-12-14T05:05:14.798Z,-9.36
2022-12-14T05:08:35.597Z,-9.44
2022-12-14T05:11:55.058Z,-9.35
2022-12-14T05:15:13.454Z,-9.30
2022-12-14T05:18:26.171Z,-9.39
2022-12-14T05:21:54.033Z,-9.36
2022-12-14T05:25:05.843Z,-9.47
2022-12-14T05:28:19.369Z,-9.43
2022-12-14T05:31:32.052Z,-9.54
2022-12-14T05:34:44.151Z,-9.59
2022-12-14T05:37:56.182Z,-9.64
2022-12-14T05:41:08.398Z,-9.61
2022-12-14T05:44:20.367Z,-9.57
2022-12-14T05:47:32.937Z,-9.59
2022-12-14T05:50:44.819Z,-9.48
2022-12-14T05:53:57.149Z,-9.49
2022-12-14T05:57:09.892Z,-9.51
2022-12-14T06:00:23.577Z,-9.60
2022-12-14T06:03:35.692Z,-9.61
2022-12-14T06:06:47.907Z,-9.66
2022-12-14T06:10:02.659Z,-9.63
2022-12-14T06:13:14.567Z,-9.72
2022-12-14T06:16:29.732Z,-9.67
2022-12-14T06:19:42.532Z,-9.63
2022-12-14T06:22:56.566Z,-9.66
2022-12-14T06:26:08.714Z,-9.73
2022-12-14T06:29:24.305Z,-9.84
2022-12-14T06:32:36.528Z,-9.79
2022-12-14T06:35:52.158Z,-9.69
2022-12-14T06:39:07.943Z,-9.75
2022-12-14T06:42:19.863Z,-9.77
2022-12-14T06:45:32.344Z,-9.64
2022-12-14T06:48:44.733Z,-9.74
2022-12-14T06:51:57.797Z,-9.65
2022-12-14T06:55:11.690Z,-9.59
2022-12-14T06:58:25.754Z,-9.64
2022-12-14T07:01:37.836Z,-9.58
2022-12-14T07:04:50.663Z,-9.58
2022-12-14T07:08:03.080Z,-9.51
2022-12-14T07:11:17.667Z,-9.45
2022-12-14T07:14:29.628Z,-9.38
2022-12-14T07:17:43.163Z,-9.41
2022-12-14T07:21:05.100Z,-9.38
2022-12-14T07:24:17.613Z,-9.29
2022-12-14T07:27:29.780Z,-9.20
2022-12-14T07:30:41.753Z,-9.20
2022-12-14T07:33:56.079Z,-9.22
2022-12-14T07:37:08.379Z,-9.26
2022-12-14T07:40:21.625Z,-9.29
2022-12-14T07:43:33.591Z,-9.15
2022-12-14T07:46:46.674Z,-9.08
2022-12-14T07:49:58.960Z,-8.96
2022-12-14T07:53:11.584Z,-9.04
2022-12-14T07:56:26.746Z,-8.96
2022-12-14T07:59:39.223Z,-8.89
2022-12-14T08:02:51.575Z,-8.78
2022-12-14T08:06:03.681Z,-8.69
2022-12-14T08:09:17.424Z,-8.69
2022-12-14T08:12:29.680Z,-8.71
2022-12-14T08:15:45.789Z,-8.60
2022-12-14T08:18:59.157Z,-8.56
2022-12-14T08:22:11.823Z,-8.59
2022-12-14T08:25:24.244Z,-8.76
2022-12-14T08:28:38.548Z,-8.72
2022-12-14T08:31:50.917Z,-8.64
2022-12-14T08:35:02.812Z,-8.51
2022-12-14T08:38:15.483Z,-8.45
2022-12-14T08:41:28.044Z,-8.55
2022-12-14T08:44:39.990Z,-8.40
2022-12-14T08:47:51.981Z,-8.33
2022-12-14T08:51:09.735Z,-8.36
2022-12-14T08:54:24.286Z,-8.46
2022-12-14T08:57:36.194Z,-8.47
2022-12-14T09:00:48.376Z,-8.38
2022-12-14T09:04:00.257Z,-8.20
2022-12-14T09:07:12.154Z,-8.11
2022-12-14T09:10:24.508Z,-8.00
2022-12-14T09:13:37.650Z,-7.98
2022-12-14T09:16:49.744Z,-7.88
2022-12-14T09:20:02.245Z,-7.73
2022-12-14T09:23:14.146Z,-7.67
2022-12-14T09:26:27.953Z,-7.58
2022-12-14T09:29:40.419Z,-7.67
2022-12-14T09:32:52.427Z,-7.56
2022-12-14T09:36:09.777Z,-7.57
2022-12-14T09:39:22.033Z,-7.43
2022-12-14T09:42:58.062Z,-7.71
2022-12-14T09:46:22.468Z,-7.49
2022-12-14T09:49:38.859Z,-7.43
2022-12-14T09:52:55.513Z,-7.36
2022-12-14T09:56:09.107Z,-7.46
2022-12-14T09:59:23.762Z,-7.48
2022-12-14T10:02:47.191Z,-7.35
2022-12-14T10:06:17.789Z,-7.20
2022-12-14T10:09:37.399Z,-7.09
2022-12-14T10:12:59.440Z,-6.90
2022-12-14T10:16:22.773Z,-6.88
2022-12-14T10:19:46.494Z,-6.87
2022-12-14T10:23:00.442Z,-6.69
2022-12-14T10:26:17.078Z,-6.67
2022-12-14T10:29:37.311Z,-6.83
2022-12-14T10:32:53.628Z,-6.98
2022-12-14T10:36:11.987Z,-6.76
2022-12-14T10:39:34.634Z,-6.76
2022-12-14T10:42:53.630Z,-6.68
2022-12-14T10:46:14.297Z,-6.69
2022-12-14T10:49:31.110Z,-6.90
2022-12-14T10:52:46.508Z,-6.92
2022-12-14T10:56:03.114Z,-6.94
2022-12-14T10:59:39.707Z,-7.07
2022-12-14T11:02:51.805Z,-6.97
2022-12-14T11:06:09.114Z,-6.97
2022-12-14T11:09:30.366Z,-6.90
2022-12-14T11:12:42.960Z,-6.87
2022-12-14T11:15:57.537Z,-6.64
2022-12-14T11:19:15.562Z,-6.54
2022-12-14T11:22:27.679Z,-6.45
2022-12-14T11:25:52.190Z,-6.39
2022-12-14T11:29:06.668Z,-6.30
2022-12-14T11:32:28.520Z,-6.22
2022-12-14T11:35:40.764Z,-6.15
2022-12-14T11:39:02.142Z,-6.08
2022-12-14T11:42:19.874Z,-6.09
2022-12-14T11:45:40.526Z,-6.12
2022-12-14T11:48:55.742Z,-6.29
2022-12-14T11:52:15.445Z,-6.21
2022-12-14T11:55:30.454Z,-6.30
2022-12-14T11:58:47.683Z,-6.24
2022-12-14T12:01:59.999Z,-6.22
2022-12-14T12:05:15.945Z,-6.33
2022-12-14T12:08:32.090Z,-6.29
2022-12-14T12:11:48.481Z,-6.20
2022-12-14T12:15:04.464Z,-6.28
2022-12-14T12:18:21.245Z,-6.17
2022-12-14T12:21:33.786Z,-6.18
2022-12-14T12:25:23.633Z,-6.01
2022-12-14T12:28:14.777Z,-5.97
2022-12-14T12:31:33.882Z,-6.13
2022-12-14T12:34:52.028Z,-5.98
2022-12-14T12:38:10.123Z,-5.95
2022-12-14T12:41:30.691Z,-6.13
2022-12-14T12:44:53.611Z,-6.09
2022-12-14T12:48:10.353Z,-6.20
2022-12-14T12:51:23.285Z,-6.12
2022-12-14T12:54:40.541Z,-6.09
2022-12-14T12:57:56.470Z,-6.11
2022-12-14T13:01:15.534Z,-5.96
2022-12-14T13:04:38.533Z,-5.97
2022-12-14T13:07:54.857Z,-5.98
2022-12-14T13:11:27.573Z,-5.99
2022-12-14T13:14:32.546Z,-6.01
2022-12-14T13:17:50.444Z,-5.96
2022-12-14T13:21:03.713Z,-6.00
2022-12-14T13:24:22.440Z,-6.03
2022-12-14T13:28:10.094Z,-5.95
2022-12-14T13:31:32.891Z,-5.92
2022-12-14T13:34:55.523Z,-5.95
2022-12-14T13:38:33.376Z,-5.93
2022-12-14T13:41:49.387Z,-5.93
2022-12-14T13:45:08.202Z,-5.95
2022-12-14T13:48:28.865Z,-5.91
2022-12-14T13:51:44.796Z,-5.98
2022-12-14T13:54:59.821Z,-5.98
2022-12-14T13:58:23.919Z,-6.04
2022-12-14T14:02:05.884Z,-6.01
2022-12-14T14:05:50.125Z,-5.99
2022-12-14T14:09:03.360Z,-5.95
2022-12-14T14:12:48.274Z,-5.97
2022-12-14T14:19:26.909Z,-5.92
2022-12-14T14:22:38.787Z,-5.93
2022-12-14T14:25:55.985Z,-5.88
2022-12-14T14:29:25.024Z,-5.84
2022-12-14T14:32:53.794Z,-5.88
2022-12-14T14:36:24.099Z,-5.86
2022-12-14T14:40:05.934Z,-5.87
2022-12-14T14:43:06.146Z,-5.83
2022-12-14T14:46:23.203Z,-5.79
2022-12-14T14:49:38.621Z,-5.75
2022-12-14T14:53:19.806Z,-5.73
2022-12-14T14:56:51.775Z,-5.77
2022-12-14T15:00:08.558Z,-5.75
2022-12-14T15:03:22.399Z,-5.65
2022-12-14T15:06:39.301Z,-5.70
2022-12-14T15:09:58.129Z,-5.68
2022-12-14T15:13:15.956Z,-5.61
2022-12-14T15:16:37.556Z,-5.67
2022-12-14T15:19:57.115Z,-5.68
2022-12-14T15:23:11.566Z,-5.68
2022-12-14T15:26:28.918Z,-5.67
2022-12-14T15:29:41.305Z,-5.65
2022-12-14T15:32:59.008Z,-5.58
2022-12-14T15:36:16.123Z,-5.63
2022-12-14T15:39:44.261Z,-5.58
2022-12-14T15:42:59.638Z,-5.51
2022-12-14T15:46:21.253Z,-5.51
2022-12-14T15:49:33.590Z,-5.48
2022-12-14T15:52:46.708Z,-5.61
2022-12-14T15:56:03.979Z,-5.63
2022-12-14T15:59:23.053Z,-5.57
2022-12-14T16:02:39.757Z,-5.49
2022-12-14T16:05:52.216Z,-5.48
2022-12-14T16:09:10.004Z,-5.45
2022-12-14T16:12:28.923Z,-5.47
2022-12-14T16:15:41.918Z,-5.53
2022-12-14T16:19:20.257Z,-5.48
2022-12-14T16:22:27.912Z,-5.44
2022-12-14T16:25:44.817Z,-5.39
2022-12-14T16:29:13.736Z,-5.35
2022-12-14T16:32:28.785Z,-5.31
2022-12-14T16:35:43.380Z,-5.24
2022-12-14T16:39:06.098Z,-5.17
2022-12-14T16:42:28.497Z,-5.16
2022-12-14T16:46:16.314Z,-5.14
2022-12-14T16:49:44.258Z,-5.07
2022-12-14T16:53:25.947Z,-5.03
2022-12-14T16:56:51.117Z,-4.99
2022-12-14T17:00:10.206Z,-4.94
2022-12-14T17:03:34.803Z,-4.89
2022-12-14T17:07:07.150Z,-4.91
2022-12-14T17:10:34.313Z,-4.86
2022-12-14T17:13:54.932Z,-4.85
2022-12-14T17:17:12.880Z,-4.79
2022-12-14T17:20:29.291Z,-4.77
2022-12-14T17:23:44.960Z,-4.67
2022-12-14T17:26:57.878Z,-4.60
2022-12-14T17:30:11.779Z,-4.52
2022-12-14T17:33:24.980Z,-4.58
2022-12-14T17:36:37.921Z,-4.59
2022-12-14T17:39:50.439Z,-4.51
2022-12-14T17:43:05.105Z,-4.50
2022-12-14T17:46:19.545Z,-4.44
2022-12-14T17:49:39.305Z,-4.41
2022-12-14T17:52:54.188Z,-4.36
2022-12-14T17:56:07.354Z,-4.33
2022-12-14T17:59:19.310Z,-4.28
2022-12-14T18:02:38.107Z,-4.23
2022-12-14T18:05:53.200Z,-4.17
2022-12-14T18:09:05.629Z,-4.13
2022-12-14T18:12:23.574Z,-4.12
2022-12-14T18:15:44.019Z,-4.10
2022-12-14T18:18:58.228Z,-4.06
2022-12-14T18:22:11.442Z,-4.10
2022-12-14T18:25:33.212Z,-3.99
2022-12-14T18:28:46.396Z,-3.97
2022-12-14T18:31:58.754Z,-3.96
2022-12-14T18:35:13.713Z,-3.90
2022-12-14T18:38:26.059Z,-3.97
2022-12-14T18:41:38.491Z,-3.99
2022-12-14T18:44:50.491Z,-3.97
2022-12-14T18:48:03.802Z,-3.95
2022-12-14T18:51:21.834Z,-3.92
2022-12-14T18:54:33.998Z,-3.88
2022-12-14T18:57:46.543Z,-3.90
2022-12-14T19:01:02.678Z,-3.86
2022-12-14T19:04:14.930Z,-3.83
2022-12-14T19:07:26.990Z,-3.81
2022-12-14T19:10:40.186Z,-3.80
2022-12-14T19:13:52.394Z,-3.77
2022-12-14T19:17:04.377Z,-3.76
2022-12-14T19:20:19.758Z,-3.75
2022-12-14T19:23:32.113Z,-3.74
2022-12-14T19:26:49.534Z,-3.70
2022-12-14T19:30:03.113Z,-3.73
2022-12-14T19:33:15.767Z,-3.73
2022-12-14T19:36:28.392Z,-3.71
2022-12-14T19:39:40.704Z,-3.73
2022-12-14T19:42:53.570Z,-3.73
2022-12-14T19:46:05.930Z,-3.72
2022-12-14T19:49:18.647Z,-3.70
2022-12-14T19:52:30.844Z,-3.65
2022-12-14T19:55:42.935Z,-3.69
2022-12-14T19:58:56.855Z,-3.76
2022-12-14T20:02:11.518Z,-3.79
2022-12-14T20:05:27.337Z,-3.74
2022-12-14T20:08:41.252Z,-3.70
2022-12-14T20:11:53.478Z,-3.72
2022-12-14T20:15:05.724Z,-3.72
2022-12-14T20:18:17.629Z,-3.71
2022-12-14T20:21:30.714Z,-3.71
2022-12-14T20:24:46.345Z,-3.65
2022-12-14T20:28:00.334Z,-3.57
2022-12-14T20:31:20.461Z,-3.57
2022-12-14T20:34:34.279Z,-3.56
2022-12-14T20:37:46.757Z,-3.49
2022-12-14T20:40:59.085Z,-3.52
2022-12-14T20:44:16.256Z,-3.56
2022-12-14T20:47:28.489Z,-3.50
2022-12-14T20:50:40.853Z,-3.47
2022-12-14T20:54:05.076Z,-3.47
2022-12-14T20:57:23.936Z,-3.42
2022-12-14T21:00:59.552Z,-3.36
2022-12-14T21:04:18.129Z,-3.29
2022-12-14T21:07:40.099Z,-3.30
2022-12-14T21:11:11.210Z,-3.28
2022-12-14T21:14:34.681Z,-3.25
2022-12-14T21:17:53.815Z,-3.24
2022-12-14T21:21:26.452Z,-3.19
2022-12-14T21:28:31.860Z,-3.19
2022-12-14T21:32:07.647Z,-3.17
2022-12-14T21:35:36.301Z,-3.18
2022-12-14T21:38:49.102Z,-3.20
2022-12-14T21:42:16.980Z,-3.16
2022-12-14T21:45:29.119Z,-3.11
2022-12-14T21:48:42.659Z,-3.10
2022-12-14T21:51:56.745Z,-3.08
2022-12-14T21:55:09.290Z,-3.09
2022-12-14T21:58:23.784Z,-3.12
2022-12-14T22:01:35.798Z,-3.11
2022-12-14T22:04:48.661Z,-3.06
2022-12-14T22:08:00.615Z,-3.04
2022-12-14T22:11:13.230Z,-3.01
2022-12-14T22:14:28.633Z,-3.04
2022-12-14T22:17:40.491Z,-3.05
2022-12-14T22:20:52.781Z,-3.05
2022-12-14T22:24:04.770Z,-3.02
2022-12-14T22:27:17.322Z,-3.00
2022-12-14T22:30:31.814Z,-3.00
2022-12-14T22:33:43.380Z,-2.95
2022-12-14T22:36:55.964Z,-2.95
2022-12-14T22:40:08.362Z,-2.93
2022-12-14T22:43:25.851Z,-2.87
2022-12-14T22:46:35.906Z,-2.84
2022-12-14T22:49:47.946Z,-2.87
2022-12-14T22:52:59.953Z,-2.87
2022-12-14T22:56:18.083Z,-2.86
2022-12-14T22:59:34.444Z,-2.87
2022-12-14T23:02:48.175Z,-2.82
2022-12-14T23:06:02.282Z,-2.79
2022-12-14T23:09:29.432Z,-2.75
2022-12-14T23:12:55.947Z,-2.71
2022-12-14T23:16:23.428Z,-2.68
2022-12-14T23:19:50.149Z,-2.71
2022-12-14T23:23:17.018Z,-2.78
2022-12-14T23:26:43.620Z,-2.79
2022-12-14T23:30:10.391Z,-2.80
2022-12-14T23:33:36.488Z,-2.78
2022-12-14T23:37:03.184Z,-2.74
2022-12-14T23:40:31.952Z,-2.71
2022-12-14T23:43:58.835Z,-2.68
2022-12-14T23:47:25.563Z,-2.65
2022-12-14T23:50:52.113Z,-2.64
2022-12-14T23:54:18.735Z,-2.67
2022-12-14T23:57:45.603Z,-2.70
